createdAt,value
2019-01-20T00:07:52.570Z,16.00
2019-01-20T00:20:49.742Z,15.63
2019-01-20T00:21:48.380Z,13.70
2019-01-20T00:28:27.550Z,12.77
2019-01-20T00:34:45.511Z,13.80
2019-01-20T00:37:18.864Z,13.43
2019-01-20T00:43:29.958Z,14.60
2019-01-20T00:50:20.013Z,18.23
2019-01-20T00:53:20.286Z,16.43
2019-01-20T01:02:56.533Z,12.30
2019-01-20T01:09:04.184Z,15.23
2019-01-20T01:11:59.053Z,13.27
2019-01-20T01:24:57.130Z,12.53
2019-01-20T01:30:52.621Z,13.30
2019-01-20T01:55:11.598Z,11.80
2019-01-20T02:02:26.068Z,12.30
2019-01-20T02:05:36.992Z,12.10
2019-01-20T02:42:58.556Z,11.90
2019-01-20T02:46:09.586Z,11.97
2019-01-20T02:55:19.121Z,11.40
2019-01-20T03:01:50.188Z,12.77
2019-01-20T03:24:56.247Z,14.77
2019-01-20T03:30:52.183Z,14.03
2019-01-20T03:33:52.398Z,10.50
2019-01-20T03:36:25.714Z,9.73
2019-01-20T03:38:55.163Z,11.23
2019-01-20T03:41:24.120Z,13.27
2019-01-20T03:43:53.026Z,13.13
2019-01-20T03:46:21.983Z,12.93
2019-01-20T03:48:50.883Z,11.60
2019-01-20T03:51:19.952Z,11.37
2019-01-20T03:53:48.854Z,9.63
2019-01-20T03:56:17.794Z,12.00
2019-01-20T03:58:46.785Z,12.60
2019-01-20T04:01:15.730Z,10.83
2019-01-20T04:03:44.673Z,12.27
2019-01-20T04:06:13.526Z,12.27
2019-01-20T04:08:42.546Z,13.03
2019-01-20T04:11:11.609Z,13.07
2019-01-20T04:13:40.537Z,13.37
2019-01-20T04:16:09.439Z,11.40
2019-01-20T04:18:38.258Z,11.97
2019-01-20T04:21:07.624Z,12.00
2019-01-20T04:23:36.815Z,13.73
2019-01-20T04:26:05.864Z,12.50
2019-01-20T04:28:34.880Z,10.67
2019-01-20T04:31:04.211Z,9.43
2019-01-20T04:33:33.255Z,9.03
2019-01-20T04:36:02.359Z,10.33
2019-01-20T04:38:31.298Z,9.53
2019-01-20T04:41:00.095Z,12.17
2019-01-20T04:43:29.132Z,10.10
2019-01-20T04:45:58.071Z,8.50
2019-01-20T04:48:26.889Z,9.03
2019-01-20T04:50:55.827Z,12.00
2019-01-20T04:53:25.150Z,9.77
2019-01-20T04:55:54.094Z,10.30
2019-01-20T04:58:24.125Z,11.80
2019-01-20T05:00:53.110Z,9.07
2019-01-20T05:03:22.090Z,11.13
2019-01-20T05:05:50.920Z,9.73
2019-01-20T05:08:19.911Z,10.13
2019-01-20T05:10:49.999Z,10.87
2019-01-20T05:13:18.921Z,10.70
2019-01-20T05:15:47.764Z,10.50
2019-01-20T05:18:16.667Z,9.97
2019-01-20T05:20:45.470Z,7.83
2019-01-20T05:23:14.503Z,9.37
2019-01-20T05:25:43.374Z,8.93
2019-01-20T05:28:12.389Z,11.70
2019-01-20T05:30:41.254Z,10.60
2019-01-20T05:33:10.258Z,10.10
2019-01-20T05:35:39.456Z,8.90
2019-01-20T05:38:08.366Z,9.60
2019-01-20T05:40:37.362Z,8.77
2019-01-20T05:43:06.365Z,10.97
2019-01-20T05:45:35.411Z,7.90
2019-01-20T05:48:04.357Z,8.90
2019-01-20T05:50:33.189Z,10.70
2019-01-20T05:53:02.124Z,10.33
2019-01-20T05:55:31.096Z,8.90
2019-01-20T05:58:00.109Z,9.30
2019-01-20T06:00:31.762Z,9.63
2019-01-20T06:03:00.821Z,9.50
2019-01-20T06:05:29.886Z,7.17
2019-01-20T06:07:58.762Z,10.10
2019-01-20T06:10:27.961Z,10.30
2019-01-20T06:12:56.959Z,7.47
2019-01-20T06:15:25.963Z,7.70
2019-01-20T06:17:55.009Z,11.57
2019-01-20T06:20:24.065Z,9.83
2019-01-20T06:22:52.975Z,9.20
2019-01-20T06:25:22.198Z,13.33
2019-01-20T06:27:51.187Z,11.87
2019-01-20T06:30:25.410Z,10.20
2019-01-20T06:32:54.334Z,10.03
2019-01-20T06:35:23.209Z,10.07
2019-01-20T06:37:52.176Z,14.53
2019-01-20T06:40:21.147Z,11.87
2019-01-20T06:42:50.223Z,10.83
2019-01-20T06:45:19.160Z,11.83
2019-01-20T06:47:48.089Z,12.87
2019-01-20T06:50:18.395Z,11.37
2019-01-20T06:52:47.680Z,11.47
2019-01-20T06:55:16.686Z,10.57
2019-01-20T06:57:46.004Z,12.27
2019-01-20T07:00:16.932Z,11.60
2019-01-20T07:02:45.956Z,10.50
2019-01-20T07:05:15.029Z,9.37
2019-01-20T07:07:44.217Z,12.37
2019-01-20T07:10:14.267Z,10.50
2019-01-20T07:12:43.283Z,10.20
2019-01-20T07:15:14.648Z,10.83
2019-01-20T07:17:43.643Z,8.73
2019-01-20T07:20:12.904Z,9.30
2019-01-20T07:22:41.946Z,9.47
2019-01-20T07:25:11.218Z,12.13
2019-01-20T07:27:40.234Z,9.00
2019-01-20T07:30:12.523Z,9.80
2019-01-20T07:32:41.362Z,10.53
2019-01-20T07:35:10.633Z,11.87
2019-01-20T07:37:39.656Z,13.00
2019-01-20T07:40:10.520Z,8.73
2019-01-20T07:42:39.674Z,9.67
2019-01-20T07:45:10.673Z,11.10
2019-01-20T07:47:40.201Z,10.57
2019-01-20T07:50:12.853Z,14.60
2019-01-20T07:52:41.838Z,12.87
2019-01-20T07:55:10.856Z,11.53
2019-01-20T07:57:39.723Z,11.67
2019-01-20T08:00:11.166Z,18.60
2019-01-20T08:02:40.103Z,27.50
2019-01-20T08:05:09.257Z,23.50
2019-01-20T08:07:38.354Z,30.63
2019-01-20T08:10:11.027Z,23.03
2019-01-20T08:12:40.090Z,22.97
2019-01-20T08:15:10.658Z,15.03
2019-01-20T08:17:39.790Z,14.20
2019-01-20T08:20:11.813Z,16.33
2019-01-20T08:22:40.862Z,11.53
2019-01-20T08:25:10.641Z,12.97
2019-01-20T08:27:39.759Z,16.17
2019-01-20T08:30:11.365Z,12.50
2019-01-20T08:32:40.689Z,12.33
2019-01-20T08:35:10.802Z,15.47
2019-01-20T08:37:40.073Z,11.20
2019-01-20T08:40:12.443Z,21.93
2019-01-20T08:42:41.412Z,17.23
2019-01-20T08:45:14.822Z,15.53
2019-01-20T08:47:53.797Z,15.17
2019-01-20T08:50:22.737Z,20.07
2019-01-20T08:52:51.740Z,14.73
2019-01-20T08:55:20.653Z,12.87
2019-01-20T08:57:49.613Z,14.63
2019-01-20T09:00:18.633Z,12.17
2019-01-20T09:02:47.563Z,13.23
2019-01-20T09:05:16.786Z,15.33
2019-01-20T09:07:45.711Z,15.13
2019-01-20T09:10:21.325Z,17.50
2019-01-20T09:12:50.569Z,17.40
2019-01-20T09:15:19.580Z,13.63
2019-01-20T09:17:48.563Z,17.83
2019-01-20T09:20:17.681Z,11.27
2019-01-20T09:22:46.499Z,12.73
2019-01-20T09:25:15.716Z,12.77
2019-01-20T09:27:44.714Z,10.53
2019-01-20T09:30:17.021Z,12.03
2019-01-20T09:32:46.331Z,12.70
2019-01-20T09:35:15.326Z,15.57
2019-01-20T09:38:03.559Z,12.27
2019-01-20T09:40:33.012Z,12.37
2019-01-20T09:43:02.148Z,11.53
2019-01-20T09:45:31.431Z,11.83
2019-01-20T09:48:00.735Z,12.03
2019-01-20T09:50:29.905Z,11.57
2019-01-20T09:52:59.101Z,10.90
2019-01-20T09:55:30.986Z,16.07
2019-01-20T09:58:03.135Z,12.03
2019-01-20T10:00:36.735Z,13.97
2019-01-20T10:03:06.097Z,13.77
2019-01-20T10:05:38.212Z,13.00
2019-01-20T10:08:07.769Z,10.97
2019-01-20T10:10:36.848Z,12.87
2019-01-20T10:13:09.578Z,12.67
2019-01-20T10:15:42.053Z,15.80
2019-01-20T10:18:11.361Z,14.13
2019-01-20T10:20:40.469Z,11.80
2019-01-20T10:23:19.030Z,12.00
2019-01-20T10:25:56.914Z,17.27
2019-01-20T10:28:26.977Z,10.77
2019-01-20T10:30:56.422Z,12.77
2019-01-20T10:33:26.268Z,14.17
2019-01-20T10:36:06.231Z,11.77
2019-01-20T10:38:37.099Z,12.03
2019-01-20T10:41:06.519Z,14.00
2019-01-20T10:43:36.063Z,12.17
2019-01-20T10:46:05.532Z,14.47
2019-01-20T10:48:35.029Z,11.90
2019-01-20T10:51:07.154Z,14.10
2019-01-20T10:53:36.517Z,23.03
2019-01-20T10:56:07.678Z,20.47
2019-01-20T10:58:37.026Z,11.63
2019-01-20T11:01:08.969Z,15.50
2019-01-20T11:03:39.544Z,21.67
2019-01-20T11:06:11.635Z,16.57
2019-01-20T11:08:43.741Z,13.13
2019-01-20T11:11:12.923Z,13.13
2019-01-20T11:13:42.389Z,12.70
2019-01-20T11:16:14.017Z,12.47
2019-01-20T11:18:45.245Z,11.23
2019-01-20T11:21:16.120Z,12.40
2019-01-20T11:23:46.566Z,13.60
2019-01-20T11:26:17.238Z,12.20
2019-01-20T11:28:46.870Z,12.10
2019-01-20T11:31:16.410Z,11.50
2019-01-20T11:33:45.647Z,13.30
2019-01-20T11:36:16.101Z,13.10
2019-01-20T11:38:45.181Z,16.37
2019-01-20T11:41:14.439Z,12.40
2019-01-20T11:43:43.899Z,10.53
2019-01-20T11:46:13.222Z,13.57
2019-01-20T11:48:42.840Z,15.97
2019-01-20T11:51:16.473Z,12.10
2019-01-20T11:53:46.215Z,10.47
2019-01-20T11:56:18.404Z,14.07
2019-01-20T11:58:50.876Z,11.50
2019-01-20T12:01:22.519Z,11.87
2019-01-20T12:03:51.983Z,13.27
2019-01-20T12:06:21.043Z,15.43
2019-01-20T12:08:50.154Z,13.83
2019-01-20T12:11:21.214Z,13.97
2019-01-20T12:13:50.420Z,14.37
2019-01-20T12:16:19.460Z,12.37
2019-01-20T12:18:50.453Z,13.43
2019-01-20T12:21:21.650Z,14.53
2019-01-20T12:23:57.379Z,12.20
2019-01-20T12:26:26.677Z,15.23
2019-01-20T12:28:58.547Z,12.07
2019-01-20T12:31:27.906Z,13.53
2019-01-20T12:33:56.767Z,12.67
2019-01-20T12:36:25.736Z,13.67
2019-01-20T12:38:55.258Z,11.47
2019-01-20T12:41:24.394Z,12.90
2019-01-20T12:43:53.605Z,11.50
2019-01-20T12:46:22.650Z,13.37
2019-01-20T12:48:57.673Z,11.83
2019-01-20T12:51:28.686Z,10.30
2019-01-20T12:53:57.982Z,10.97
2019-01-20T12:56:26.985Z,11.43
2019-01-20T12:58:55.910Z,10.27
2019-01-20T13:01:24.940Z,11.97
2019-01-20T13:03:55.614Z,10.40
2019-01-20T13:06:24.723Z,11.47
2019-01-20T13:08:57.015Z,16.03
2019-01-20T13:11:27.266Z,10.77
2019-01-20T13:13:56.510Z,13.00
2019-01-20T13:16:26.734Z,12.45
2019-01-20T13:18:55.783Z,11.60
2019-01-20T13:21:29.964Z,10.03
2019-01-20T13:24:04.638Z,12.07
2019-01-20T13:26:36.735Z,10.55
2019-01-20T13:29:06.053Z,10.80
2019-01-20T13:31:35.044Z,10.63
2019-01-20T13:34:04.679Z,14.60
2019-01-20T13:36:33.867Z,11.23
2019-01-20T13:39:24.987Z,10.70
2019-01-20T13:41:53.913Z,9.87
2019-01-20T13:44:26.077Z,10.83
2019-01-20T13:46:55.181Z,12.17
2019-01-20T13:49:27.548Z,15.47
2019-01-20T13:51:56.584Z,13.27
2019-01-20T13:54:25.557Z,12.97
2019-01-20T13:56:54.663Z,11.63
2019-01-20T13:59:23.881Z,11.10
2019-01-20T14:01:53.014Z,10.57
2019-01-20T14:04:22.667Z,11.40
2019-01-20T14:06:51.714Z,9.70
2019-01-20T14:09:21.255Z,12.40
2019-01-20T14:11:50.559Z,11.17
2019-01-20T14:14:19.708Z,17.93
2019-01-20T14:16:48.626Z,12.33
2019-01-20T14:19:21.686Z,12.10
2019-01-20T14:21:48.311Z,12.27
2019-01-20T14:24:17.520Z,11.47
2019-01-20T14:26:46.729Z,11.97
2019-01-20T14:29:15.990Z,12.30
2019-01-20T14:31:45.133Z,12.50
2019-01-20T14:34:14.293Z,11.70
2019-01-20T14:36:43.366Z,12.53
2019-01-20T14:39:13.143Z,12.87
2019-01-20T14:41:42.561Z,14.37
2019-01-20T14:44:11.610Z,14.03
2019-01-20T14:46:40.895Z,16.30
2019-01-20T14:49:10.159Z,14.50
2019-01-20T14:51:39.723Z,16.30
2019-01-20T14:54:08.894Z,14.20
2019-01-20T14:56:39.428Z,9.93
2019-01-20T14:59:08.281Z,12.80
2019-01-20T15:01:37.506Z,16.10
2019-01-20T15:04:06.723Z,10.53
2019-01-20T15:06:35.910Z,19.60
2019-01-20T15:09:08.185Z,22.13
2019-01-20T15:11:37.320Z,26.80
2019-01-20T15:14:06.780Z,25.13
2019-01-20T15:16:35.983Z,16.43
2019-01-20T15:19:10.146Z,18.57
2019-01-20T15:21:39.329Z,13.53
2019-01-20T15:24:08.488Z,14.40
2019-01-20T15:26:37.828Z,11.13
2019-01-20T15:29:07.102Z,14.80
2019-01-20T15:31:36.262Z,15.23
2019-01-20T15:34:09.111Z,14.03
2019-01-20T15:36:40.792Z,15.70
2019-01-20T15:39:11.686Z,17.03
2019-01-20T15:41:41.199Z,15.03
2019-01-20T15:44:10.534Z,14.70
2019-01-20T15:46:40.132Z,14.67
2019-01-20T15:49:09.634Z,15.13
2019-01-20T15:51:38.904Z,15.93
2019-01-20T15:54:08.299Z,22.97
2019-01-20T15:56:37.836Z,18.77
2019-01-20T15:59:07.208Z,21.63
2019-01-20T16:01:36.789Z,18.13
2019-01-20T16:04:06.077Z,20.70
2019-01-20T16:06:35.486Z,19.20
2019-01-20T16:09:07.914Z,24.73
2019-01-20T16:11:37.618Z,24.53
2019-01-20T16:14:07.217Z,25.57
2019-01-20T16:16:36.555Z,25.63
2019-01-20T16:19:06.014Z,25.30
2019-01-20T16:21:35.390Z,26.53
2019-01-20T16:24:04.745Z,27.30
2019-01-20T16:26:34.215Z,26.87
2019-01-20T16:29:03.735Z,25.10
2019-01-20T16:31:39.682Z,28.13
2019-01-20T16:34:04.467Z,39.07
2019-01-20T16:36:33.901Z,32.13
2019-01-20T16:39:03.508Z,37.20
2019-01-20T16:41:32.856Z,37.13
2019-01-20T16:44:02.307Z,30.73
2019-01-20T16:46:31.604Z,27.43
2019-01-20T16:49:00.977Z,32.37
2019-01-20T16:51:30.378Z,30.50
2019-01-20T16:54:02.665Z,29.20
2019-01-20T16:56:32.223Z,27.83
2019-01-20T16:59:01.990Z,33.27
2019-01-20T17:01:31.274Z,31.30
2019-01-20T17:04:01.178Z,31.13
2019-01-20T17:06:30.826Z,32.73
2019-01-20T17:09:00.375Z,34.40
2019-01-20T17:11:30.389Z,31.07
2019-01-20T17:14:00.215Z,27.27
2019-01-20T17:16:29.754Z,30.80
2019-01-20T17:18:59.557Z,25.83
2019-01-20T17:21:29.176Z,27.33
2019-01-20T17:23:59.086Z,26.27
2019-01-20T17:26:28.744Z,31.70
2019-01-20T17:28:58.550Z,38.77
2019-01-20T17:31:27.921Z,33.10
2019-01-20T17:33:57.402Z,26.87
2019-01-20T17:36:26.737Z,29.93
2019-01-20T17:38:56.144Z,29.67
2019-01-20T17:41:25.649Z,26.30
2019-01-20T17:43:54.942Z,28.40
2019-01-20T17:46:24.235Z,42.17
2019-01-20T17:48:55.281Z,49.93
2019-01-20T17:51:24.604Z,43.93
2019-01-20T17:53:53.953Z,45.33
2019-01-20T17:56:23.613Z,42.17
2019-01-20T17:58:53.312Z,35.83
2019-01-20T18:01:22.609Z,175.13
2019-01-20T18:03:51.921Z,90.27
2019-01-20T18:06:21.210Z,49.57
2019-01-20T18:08:50.504Z,154.17
2019-01-20T18:11:19.731Z,88.17
2019-01-20T18:13:48.969Z,50.53
2019-01-20T18:16:18.406Z,50.33
2019-01-20T18:18:47.999Z,35.13
2019-01-20T18:21:17.309Z,27.00
2019-01-20T18:23:46.763Z,24.83
2019-01-20T18:26:15.977Z,21.47
2019-01-20T18:28:47.722Z,19.00
2019-01-20T18:31:17.093Z,26.73
2019-01-20T18:33:46.685Z,25.90
2019-01-20T18:36:16.142Z,22.73
2019-01-20T18:38:45.348Z,20.57
2019-01-20T18:41:14.782Z,22.47
2019-01-20T18:43:44.024Z,20.73
2019-01-20T18:46:13.450Z,20.97
2019-01-20T18:48:42.964Z,16.90
2019-01-20T18:51:12.262Z,21.20
2019-01-20T18:53:41.648Z,22.80
2019-01-20T18:56:11.149Z,22.23
2019-01-20T18:58:40.593Z,21.03
2019-01-20T19:01:11.846Z,23.20
2019-01-20T19:03:41.464Z,25.60
2019-01-20T19:06:10.831Z,22.97
2019-01-20T19:08:40.679Z,28.57
2019-01-20T19:11:10.275Z,29.27
2019-01-20T19:13:39.743Z,23.43
2019-01-20T19:16:09.336Z,20.37
2019-01-20T19:18:39.121Z,20.67
2019-01-20T19:21:09.671Z,31.37
2019-01-20T19:23:39.278Z,29.67
2019-01-20T19:26:09.042Z,33.17
2019-01-20T19:28:38.249Z,25.97
2019-01-20T19:31:08.656Z,25.43
2019-01-20T19:33:38.079Z,27.47
2019-01-20T19:36:07.755Z,23.27
2019-01-20T19:38:37.122Z,20.87
2019-01-20T19:41:06.671Z,21.90
2019-01-20T19:43:36.128Z,22.53
2019-01-20T19:46:05.525Z,26.20
2019-01-20T19:48:34.998Z,26.50
2019-01-20T19:51:04.804Z,32.07
2019-01-20T19:53:34.125Z,48.00
2019-01-20T19:56:03.789Z,114.37
2019-01-20T19:58:33.321Z,107.43
2019-01-20T20:01:02.683Z,79.17
2019-01-20T20:03:31.972Z,36.37
2019-01-20T20:09:33.339Z,88.20
2019-01-20T20:12:02.824Z,104.70
2019-01-20T20:14:35.775Z,117.07
2019-01-20T20:17:05.779Z,99.70
2019-01-20T20:19:36.611Z,70.93
2019-01-20T20:22:06.912Z,31.93
2019-01-20T20:24:40.327Z,32.33
2019-01-20T20:27:13.998Z,27.77
2019-01-20T20:29:44.977Z,26.80
2019-01-20T20:32:17.320Z,31.40
2019-01-20T20:34:47.926Z,25.97
2019-01-20T20:37:27.370Z,26.83
2019-01-20T20:39:50.067Z,27.83
2019-01-20T20:42:23.559Z,26.07
2019-01-20T20:44:53.996Z,27.37
2019-01-20T20:47:23.516Z,27.43
2019-01-20T20:49:54.794Z,27.77
2019-01-20T20:52:28.780Z,25.60
2019-01-20T20:54:57.963Z,36.60
2019-01-20T20:57:27.137Z,28.70
2019-01-20T21:00:01.112Z,30.37
2019-01-20T21:05:08.987Z,23.50
2019-01-20T21:07:42.978Z,25.10
2019-01-20T21:10:18.413Z,27.20
2019-01-20T21:12:50.869Z,26.83
2019-01-20T21:15:20.688Z,29.03
2019-01-20T21:17:54.226Z,29.83
2019-01-20T21:20:23.636Z,29.10
2019-01-20T21:22:54.001Z,29.07
2019-01-20T21:25:23.520Z,26.40
2019-01-20T21:27:55.414Z,24.47
2019-01-20T21:30:27.822Z,30.30
2019-01-20T21:33:43.816Z,25.50
2019-01-20T21:35:31.254Z,24.77
2019-01-20T21:38:06.787Z,23.70
2019-01-20T21:40:33.841Z,26.73
2019-01-20T21:43:24.022Z,30.97
2019-01-20T22:07:13.644Z,32.40
2019-01-20T22:17:07.946Z,28.50
2019-01-20T22:19:48.520Z,30.97
2019-01-20T22:22:18.198Z,36.47
2019-01-20T22:24:54.686Z,33.77
2019-01-20T22:27:31.709Z,33.73
2019-01-20T22:30:05.996Z,28.03
2019-01-20T22:32:36.908Z,30.13
2019-01-20T22:35:14.326Z,26.07
2019-01-20T22:38:38.774Z,31.13
2019-01-20T22:41:52.621Z,27.87
2019-01-20T22:44:27.670Z,26.17
2019-01-20T22:56:44.685Z,25.20
2019-01-20T22:59:19.823Z,31.03
2019-01-20T23:05:21.402Z,30.30
2019-01-20T23:07:51.906Z,28.40
2019-01-20T23:10:28.200Z,28.30
2019-01-20T23:20:49.767Z,27.90
2019-01-20T23:27:01.788Z,26.03
2019-01-20T23:29:52.286Z,26.53
2019-01-20T23:32:30.290Z,25.30
2019-01-20T23:35:00.305Z,25.97
2019-01-20T23:38:07.699Z,22.83
2019-01-20T23:40:47.956Z,20.33
2019-01-20T23:43:17.943Z,23.50
2019-01-20T23:46:03.982Z,25.73
2019-01-20T23:48:33.469Z,25.00
2019-01-20T23:52:38.845Z,23.93
2019-01-20T23:53:35.525Z,21.70
2019-01-20T23:56:29.449Z,23.97
